createdAt,value
2023-01-02T00:01:05.052Z,16.52
2023-01-02T00:04:12.924Z,14.73
2023-01-02T00:07:18.496Z,17.32
2023-01-02T00:10:23.911Z,15.08
2023-01-02T00:13:33.254Z,18.32
2023-01-02T00:16:38.848Z,19.35
2023-01-02T00:19:44.602Z,19.23
2023-01-02T00:22:49.897Z,20.17
2023-01-02T00:25:58.897Z,21.65
2023-01-02T00:29:04.731Z,16.25
2023-01-02T00:32:11.012Z,16.45
2023-01-02T00:35:16.362Z,15.15
2023-01-02T00:38:21.485Z,15.13
2023-01-02T00:41:28.276Z,16.35
2023-01-02T00:44:33.842Z,15.55
2023-01-02T00:47:40.043Z,17.67
2023-01-02T00:50:46.269Z,15.13
2023-01-02T00:53:52.606Z,16.52
2023-01-02T00:56:58.743Z,13.35
2023-01-02T01:00:04.843Z,18.40
2023-01-02T01:03:12.599Z,15.10
2023-01-02T01:06:28.443Z,16.50
2023-01-02T01:09:34.250Z,16.52
2023-01-02T01:12:42.049Z,16.37
2023-01-02T01:15:48.994Z,21.93
2023-01-02T01:18:57.278Z,17.52
2023-01-02T01:22:02.459Z,15.60
2023-01-02T01:25:09.083Z,17.12
2023-01-02T01:28:15.612Z,16.62
2023-01-02T01:31:25.624Z,15.10
2023-01-02T01:34:30.568Z,16.17
2023-01-02T01:37:37.161Z,17.48
2023-01-02T01:40:46.532Z,19.15
2023-01-02T01:44:10.349Z,18.27
2023-01-02T01:47:16.248Z,18.55
2023-01-02T01:50:46.413Z,18.98
2023-01-02T01:53:53.298Z,17.45
2023-01-02T01:57:08.076Z,21.48
2023-01-02T02:00:12.990Z,18.52
2023-01-02T02:03:26.029Z,18.62
2023-01-02T02:06:33.026Z,14.45
2023-01-02T02:09:53.554Z,15.48
2023-01-02T02:12:59.679Z,15.93
2023-01-02T02:16:34.035Z,16.25
2023-01-02T02:20:15.555Z,16.07
2023-01-02T02:23:51.682Z,16.73
2023-01-02T02:27:18.105Z,14.40
2023-01-02T02:30:36.657Z,16.57
2023-01-02T02:34:13.264Z,15.38
2023-01-02T02:37:28.867Z,18.70
2023-01-02T02:40:48.502Z,16.55
2023-01-02T02:47:29.243Z,18.27
2023-01-02T02:50:58.733Z,20.72
2023-01-02T02:54:15.422Z,17.87
2023-01-02T02:57:22.740Z,24.32
2023-01-02T03:00:32.853Z,14.43
2023-01-02T03:03:39.221Z,18.23
2023-01-02T03:06:59.400Z,18.25
2023-01-02T03:10:39.474Z,13.98
2023-01-02T03:14:15.191Z,15.30
2023-01-02T03:17:25.238Z,17.57
2023-01-02T03:20:32.530Z,17.77
2023-01-02T03:23:38.864Z,15.75
2023-01-02T03:26:46.904Z,13.35
2023-01-02T03:30:03.975Z,13.68
2023-01-02T03:33:37.198Z,11.88
2023-01-02T03:36:43.856Z,15.00
2023-01-02T03:39:51.063Z,15.70
2023-01-02T03:43:10.031Z,13.53
2023-01-02T03:46:45.793Z,14.58
2023-01-02T03:49:55.436Z,13.18
2023-01-02T03:53:00.601Z,14.93
2023-01-02T03:56:20.310Z,13.00
2023-01-02T03:59:36.279Z,12.70
2023-01-02T04:03:10.450Z,14.18
2023-01-02T04:06:23.107Z,15.75
2023-01-02T04:09:35.849Z,22.50
2023-01-02T04:12:41.661Z,18.02
2023-01-02T04:15:48.804Z,14.45
2023-01-02T04:19:01.338Z,16.27
2023-01-02T04:22:10.720Z,12.50
2023-01-02T04:25:26.164Z,15.30
2023-01-02T04:28:41.715Z,13.13
2023-01-02T04:32:20.422Z,14.60
2023-01-02T04:35:33.076Z,14.47
2023-01-02T04:38:39.200Z,12.90
2023-01-02T04:41:45.687Z,15.35
2023-01-02T04:44:52.068Z,15.08
2023-01-02T04:47:59.270Z,18.45
2023-01-02T04:51:05.642Z,14.40
2023-01-02T04:54:11.626Z,20.85
2023-01-02T04:57:17.328Z,15.80
2023-01-02T05:00:23.308Z,20.85
2023-01-02T05:03:28.335Z,18.15
2023-01-02T05:06:34.268Z,16.97
2023-01-02T05:09:39.639Z,14.10
2023-01-02T05:12:50.625Z,14.60
2023-01-02T05:15:55.824Z,17.27
2023-01-02T05:19:01.080Z,16.93
2023-01-02T05:22:24.097Z,19.90
2023-01-02T05:25:33.711Z,16.37
2023-01-02T05:28:39.275Z,16.27
2023-01-02T05:31:45.947Z,28.95
2023-01-02T05:34:52.396Z,48.17
2023-01-02T05:37:58.289Z,23.92
2023-01-02T05:41:04.270Z,18.77
2023-01-02T05:44:11.924Z,17.82
2023-01-02T05:47:16.424Z,27.62
2023-01-02T05:50:22.113Z,30.17
2023-01-02T05:53:27.103Z,69.42
2023-01-02T05:56:38.381Z,52.43
2023-01-02T05:59:44.734Z,33.85
2023-01-02T06:02:50.870Z,34.13
2023-01-02T06:06:02.375Z,36.05
2023-01-02T06:09:15.861Z,33.60
2023-01-02T06:12:22.226Z,44.35
2023-01-02T06:15:28.344Z,23.02
2023-01-02T06:18:36.638Z,20.25
2023-01-02T06:21:42.291Z,21.12
2023-01-02T06:24:46.496Z,23.35
2023-01-02T06:27:52.437Z,20.85
2023-01-02T06:30:59.057Z,19.62
2023-01-02T06:34:09.881Z,34.43
2023-01-02T06:37:15.101Z,20.43
2023-01-02T06:40:22.050Z,19.27
2023-01-02T06:43:29.051Z,20.82
2023-01-02T06:46:37.186Z,17.67
2023-01-02T06:49:46.016Z,17.45
2023-01-02T06:52:52.429Z,18.82
2023-01-02T06:56:09.105Z,18.55
2023-01-02T06:59:19.264Z,15.18
2023-01-02T07:02:28.052Z,15.45
2023-01-02T07:05:35.022Z,15.00
2023-01-02T07:08:41.354Z,16.60
2023-01-02T07:11:49.193Z,16.62
2023-01-02T07:14:55.022Z,14.78
2023-01-02T07:18:01.827Z,17.15
2023-01-02T07:21:10.723Z,49.93
2023-01-02T07:24:15.863Z,23.47
2023-01-02T07:27:21.193Z,19.73
2023-01-02T07:30:28.520Z,14.58
2023-01-02T07:33:34.278Z,15.48
2023-01-02T07:36:40.031Z,15.75
2023-01-02T07:39:47.675Z,16.27
2023-01-02T07:42:54.986Z,15.53
2023-01-02T07:46:00.514Z,14.98
2023-01-02T07:49:09.027Z,19.07
2023-01-02T07:52:16.142Z,14.50
2023-01-02T07:55:23.130Z,19.45
2023-01-02T07:58:28.981Z,29.55
2023-01-02T08:01:35.882Z,25.30
2023-01-02T08:04:43.198Z,18.45
2023-01-02T08:07:48.180Z,16.27
2023-01-02T08:10:54.982Z,17.82
2023-01-02T08:14:00.739Z,18.82
2023-01-02T08:17:06.781Z,17.15
2023-01-02T08:20:12.093Z,23.67
2023-01-02T08:23:18.511Z,17.27
2023-01-02T08:26:25.581Z,17.42
2023-01-02T08:29:32.533Z,17.67
2023-01-02T08:32:39.182Z,15.72
2023-01-02T08:35:44.886Z,16.80
2023-01-02T08:38:49.751Z,20.88
2023-01-02T08:42:02.515Z,17.45
2023-01-02T08:45:06.736Z,14.35
2023-01-02T08:48:20.675Z,14.47
2023-01-02T08:51:23.649Z,15.70
2023-01-02T08:54:29.688Z,29.18
2023-01-02T08:57:35.644Z,21.25
2023-01-02T09:00:42.679Z,23.50
2023-01-02T09:03:51.915Z,21.20
2023-01-02T09:07:00.276Z,18.30
2023-01-02T09:10:07.741Z,15.55
2023-01-02T09:13:14.200Z,17.60
2023-01-02T09:16:21.101Z,18.17
2023-01-02T09:19:27.707Z,18.87
2023-01-02T09:22:34.959Z,12.63
2023-01-02T09:25:41.882Z,14.80
2023-01-02T09:28:50.711Z,18.02
2023-01-02T09:31:56.360Z,17.65
2023-01-02T09:35:02.838Z,21.85
2023-01-02T09:38:09.393Z,15.08
2023-01-02T09:41:17.963Z,14.55
2023-01-02T09:44:39.437Z,18.00
2023-01-02T09:47:48.152Z,18.10
2023-01-02T09:50:53.592Z,15.32
2023-01-02T09:54:00.845Z,25.23
2023-01-02T09:57:17.513Z,21.65
2023-01-02T10:00:36.003Z,17.00
2023-01-02T10:03:46.232Z,20.62
2023-01-02T10:06:56.578Z,24.80
2023-01-02T10:10:10.657Z,17.73
2023-01-02T10:16:53.086Z,16.02
2023-01-02T10:20:10.215Z,18.90
2023-01-02T10:23:27.157Z,14.75
2023-01-02T10:26:35.499Z,16.97
2023-01-02T10:29:47.755Z,14.33
2023-01-02T10:32:54.896Z,12.05
2023-01-02T10:36:14.616Z,22.65
2023-01-02T10:39:44.004Z,18.77
2023-01-02T10:42:59.388Z,14.50
2023-01-02T10:46:00.875Z,14.78
2023-01-02T10:49:08.224Z,23.57
2023-01-02T10:52:21.120Z,13.70
2023-01-02T10:55:26.536Z,19.67
2023-01-02T10:58:39.817Z,45.85
2023-01-02T11:01:46.143Z,31.42
2023-01-02T11:04:52.213Z,18.37
2023-01-02T11:07:58.674Z,13.85
2023-01-02T11:11:13.662Z,14.60
2023-01-02T11:14:23.904Z,12.58
2023-01-02T11:17:37.184Z,16.73
2023-01-02T11:20:45.834Z,16.02
2023-01-02T11:23:57.842Z,14.25
2023-01-02T11:27:05.857Z,22.10
2023-01-02T11:30:11.950Z,29.25
2023-01-02T11:33:32.103Z,18.87
2023-01-02T11:36:37.819Z,15.08
2023-01-02T11:39:50.581Z,34.35
2023-01-02T11:43:16.756Z,14.47
2023-01-02T11:46:28.765Z,20.60
2023-01-02T11:49:39.610Z,19.48
2023-01-02T11:52:58.776Z,15.53
2023-01-02T11:56:17.581Z,15.85
2023-01-02T11:59:34.096Z,14.05
2023-01-02T12:02:45.660Z,14.03
2023-01-02T12:06:35.305Z,14.68
2023-01-02T12:10:25.398Z,16.95
2023-01-02T12:13:57.110Z,12.47
2023-01-02T12:17:14.680Z,13.60
2023-01-02T12:20:39.806Z,11.75
2023-01-02T12:24:17.090Z,11.97
2023-01-02T12:27:48.296Z,10.93
2023-01-02T12:31:04.650Z,14.25
2023-01-02T12:34:33.153Z,13.08
2023-01-02T12:37:52.015Z,15.95
2023-01-02T12:41:35.038Z,12.63
2023-01-02T12:44:51.518Z,14.78
2023-01-02T12:48:16.292Z,17.55
2023-01-02T12:51:33.116Z,16.00
2023-01-02T12:55:10.044Z,20.35
2023-01-02T12:58:29.510Z,25.25
2023-01-02T13:01:43.953Z,23.30
2023-01-02T13:05:05.665Z,14.80
2023-01-02T13:08:23.519Z,17.62
2023-01-02T13:11:32.412Z,20.27
2023-01-02T13:14:44.077Z,14.85
2023-01-02T13:18:15.303Z,16.00
2023-01-02T13:21:37.609Z,14.63
2023-01-02T13:24:44.176Z,13.50
2023-01-02T13:27:51.083Z,18.20
2023-01-02T13:31:44.174Z,17.25
2023-01-02T13:34:08.955Z,13.50
2023-01-02T13:37:29.840Z,19.67
2023-01-02T13:40:48.596Z,22.60
2023-01-02T13:43:53.297Z,24.00
2023-01-02T13:47:03.884Z,30.30
2023-01-02T13:50:13.819Z,39.30
2023-01-02T13:53:30.593Z,38.38
2023-01-02T13:56:40.222Z,37.25
2023-01-02T13:59:47.218Z,44.77
2023-01-02T14:02:53.999Z,41.88
2023-01-02T14:06:16.666Z,44.55
2023-01-02T14:09:37.754Z,55.70
2023-01-02T14:12:44.364Z,54.58
2023-01-02T14:15:55.026Z,65.35
2023-01-02T14:19:00.734Z,65.00
2023-01-02T14:22:23.617Z,62.58
2023-01-02T14:25:30.934Z,65.55
2023-01-02T14:28:44.510Z,65.05
2023-01-02T14:31:52.558Z,68.52
2023-01-02T14:35:02.925Z,81.05
2023-01-02T14:38:10.180Z,108.35
2023-01-02T14:41:35.849Z,93.85
2023-01-02T14:44:44.376Z,69.95
2023-01-02T14:47:56.966Z,72.25
2023-01-02T14:51:04.272Z,75.72
2023-01-02T14:54:27.834Z,119.10
2023-01-02T14:57:55.783Z,100.55
2023-01-02T15:01:04.803Z,94.58
2023-01-02T15:04:38.010Z,109.55
2023-01-02T15:07:48.158Z,157.30
2023-01-02T15:11:29.152Z,211.20
2023-01-02T15:14:35.630Z,188.03
2023-01-02T15:17:41.789Z,173.32
2023-01-02T15:20:48.488Z,142.35
2023-01-02T15:24:00.042Z,145.15
2023-01-02T15:27:06.908Z,118.90
2023-01-02T15:30:15.281Z,131.52
2023-01-02T15:33:21.148Z,120.33
2023-01-02T15:36:26.992Z,113.45
2023-01-02T15:39:27.246Z,113.52
2023-01-02T15:42:42.094Z,103.87
2023-01-02T15:45:34.740Z,106.10
2023-01-02T15:48:42.059Z,116.88
2023-01-02T15:51:49.355Z,115.22
2023-01-02T15:54:56.284Z,116.20
2023-01-02T15:58:06.446Z,136.80
2023-01-02T16:01:36.474Z,179.50
2023-01-02T16:04:46.124Z,208.72
2023-01-02T16:07:53.611Z,158.60
2023-01-02T16:11:09.975Z,161.73
2023-01-02T16:14:30.200Z,164.18
2023-01-02T16:17:46.255Z,171.50
2023-01-02T16:20:52.155Z,165.47
2023-01-02T16:23:58.324Z,172.90
2023-01-02T16:27:07.086Z,160.72
2023-01-02T16:30:15.298Z,241.73
2023-01-02T16:33:45.307Z,163.95
2023-01-02T16:36:51.370Z,149.87
2023-01-02T16:40:04.613Z,138.82
2023-01-02T16:43:10.931Z,151.42
2023-01-02T16:46:18.568Z,129.70
2023-01-02T16:49:31.571Z,122.92
2023-01-02T16:52:39.773Z,124.55
2023-01-02T16:55:44.194Z,130.00
2023-01-02T16:58:51.774Z,119.62
2023-01-02T17:01:58.549Z,128.12
2023-01-02T17:05:06.806Z,125.20
2023-01-02T17:08:13.580Z,128.05
2023-01-02T17:11:19.338Z,124.85
2023-01-02T17:14:28.325Z,115.50
2023-01-02T17:17:34.973Z,112.37
2023-01-02T17:20:42.700Z,117.33
2023-01-02T17:23:48.944Z,124.97
2023-01-02T17:26:55.034Z,127.72
2023-01-02T17:30:02.907Z,125.47
2023-01-02T17:33:08.806Z,132.05
2023-01-02T17:36:14.524Z,111.42
2023-01-02T17:39:19.229Z,110.88
2023-01-02T17:42:25.719Z,114.90
2023-01-02T17:45:33.410Z,119.57
2023-01-02T17:48:42.522Z,120.10
2023-01-02T17:51:49.258Z,120.47
2023-01-02T17:54:56.971Z,127.45
2023-01-02T17:58:02.122Z,178.30
2023-01-02T18:01:08.384Z,189.28
2023-01-02T18:04:13.893Z,241.73
2023-01-02T18:07:19.046Z,262.63
2023-01-02T18:10:32.570Z,337.05
2023-01-02T18:13:35.828Z,285.85
2023-01-02T18:16:46.768Z,188.97
2023-01-02T18:19:52.433Z,179.85
2023-01-02T18:22:57.481Z,189.52
2023-01-02T18:26:04.361Z,169.07
2023-01-02T18:29:14.170Z,188.35
2023-01-02T18:32:34.707Z,160.45
2023-01-02T18:36:00.658Z,162.15
2023-01-02T18:38:47.702Z,184.03
2023-01-02T18:41:35.588Z,199.68
2023-01-02T18:44:32.448Z,223.20
2023-01-02T18:47:43.350Z,250.28
2023-01-02T18:50:53.495Z,240.70
2023-01-02T18:54:06.584Z,255.35
2023-01-02T18:57:32.805Z,257.80
2023-01-02T19:00:44.719Z,295.07
2023-01-02T19:03:50.295Z,329.38
2023-01-02T19:07:03.708Z,267.90
2023-01-02T19:10:36.921Z,269.50
2023-01-02T19:13:43.677Z,285.60
2023-01-02T19:16:50.598Z,308.27
2023-01-02T19:19:57.321Z,304.52
2023-01-02T19:23:03.950Z,215.35
2023-01-02T19:26:09.105Z,196.07
2023-01-02T19:29:39.446Z,211.55
2023-01-02T19:32:47.719Z,183.40
2023-01-02T19:36:15.364Z,190.03
2023-01-02T19:39:41.699Z,185.95
2023-01-02T19:42:48.760Z,177.43
2023-01-02T19:45:54.729Z,177.10
2023-01-02T19:49:00.380Z,174.05
2023-01-02T19:52:07.600Z,170.47
2023-01-02T19:55:13.721Z,160.72
2023-01-02T19:58:20.857Z,200.97
2023-01-02T20:01:29.826Z,205.72
2023-01-02T20:04:37.100Z,191.32
2023-01-02T20:07:43.480Z,206.20
2023-01-02T20:10:52.117Z,217.03
2023-01-02T20:13:58.915Z,204.38
2023-01-02T20:17:07.885Z,247.88
2023-01-02T20:20:14.048Z,264.32
2023-01-02T20:23:21.012Z,258.68
2023-01-02T20:26:27.391Z,256.80
2023-01-02T20:29:33.920Z,252.95
2023-01-02T20:32:41.677Z,250.50
2023-01-02T20:35:48.193Z,241.00
2023-01-02T20:38:56.459Z,236.87
2023-01-02T20:42:01.760Z,215.15
2023-01-02T20:45:08.582Z,156.07
2023-01-02T20:48:16.363Z,141.80
2023-01-02T20:51:21.525Z,97.25
2023-01-02T20:54:27.370Z,84.55
2023-01-02T20:57:33.365Z,104.40
2023-01-02T21:00:39.773Z,130.00
2023-01-02T21:03:46.199Z,127.62
2023-01-02T21:06:53.982Z,149.30
2023-01-02T21:10:01.882Z,176.80
2023-01-02T21:13:20.118Z,187.20
2023-01-02T21:16:26.202Z,163.82
2023-01-02T21:19:31.576Z,164.88
2023-01-02T21:22:36.769Z,158.42
2023-01-02T21:25:43.267Z,150.07
2023-01-02T21:28:53.778Z,137.92
2023-01-02T21:32:00.039Z,130.87
2023-01-02T21:35:05.471Z,115.30
2023-01-02T21:38:12.044Z,119.70
2023-01-02T21:41:35.602Z,115.20
2023-01-02T21:44:42.259Z,99.25
2023-01-02T21:47:48.908Z,100.60
2023-01-02T21:50:56.802Z,111.05
2023-01-02T21:54:03.429Z,110.37
2023-01-02T21:57:10.560Z,108.72
2023-01-02T22:00:15.729Z,109.60
2023-01-02T22:03:21.067Z,106.22
2023-01-02T22:06:28.489Z,105.63
2023-01-02T22:09:37.053Z,108.40
2023-01-02T22:12:43.364Z,103.47
2023-01-02T22:15:49.770Z,103.22
2023-01-02T22:18:56.174Z,98.95
2023-01-02T22:22:03.209Z,98.95
2023-01-02T22:25:08.583Z,87.15
2023-01-02T22:28:15.469Z,91.05
2023-01-02T22:31:21.980Z,87.55
2023-01-02T22:34:29.130Z,85.87
2023-01-02T22:37:36.893Z,83.50
2023-01-02T22:40:43.751Z,84.20
2023-01-02T22:43:54.504Z,88.20
2023-01-02T22:47:04.190Z,84.15
2023-01-02T22:50:12.469Z,79.30
2023-01-02T22:53:21.525Z,77.92
2023-01-02T22:56:36.998Z,75.28
2023-01-02T22:59:43.730Z,76.15
2023-01-02T23:02:51.169Z,75.78
2023-01-02T23:05:57.680Z,76.70
2023-01-02T23:09:05.657Z,67.65
2023-01-02T23:12:11.793Z,75.70
2023-01-02T23:15:20.992Z,74.32
2023-01-02T23:18:44.740Z,76.82
2023-01-02T23:21:52.055Z,72.80
2023-01-02T23:24:57.398Z,73.22
2023-01-02T23:28:05.143Z,76.95
2023-01-02T23:31:11.095Z,83.70
2023-01-02T23:34:17.818Z,82.42
2023-01-02T23:37:23.320Z,78.60
2023-01-02T23:40:34.099Z,82.15
2023-01-02T23:43:37.114Z,86.97
2023-01-02T23:46:42.502Z,90.95
2023-01-02T23:49:48.056Z,97.35
2023-01-02T23:52:54.205Z,111.30
2023-01-02T23:56:00.605Z,109.25
2023-01-02T23:59:10.379Z,108.80
